Time,TemperatureF,DewpointF,PressureIn,WindDirection,WindDirectionDegrees,WindSpeedMPH,WindSpeedGustMPH,Humidity,HourlyPrecipIn,Conditions,Clouds,dailyrainin,SoftwareType,DateUTC
2013-03-17 00:01:00,24.0,16.0,-100.00,NE,35,13.0,15.0,73,0.00,,,0.00,,2013-03-17 00:01:00,
2013-03-17 00:12:00,24.0,16.0,-100.00,NNE,20,15.0,17.0,74,0.00,,,0.00,,2013-03-17 00:12:00,
2013-03-17 00:22:00,23.0,16.0,-100.00,NNE,20,13.0,16.0,74,0.00,,,0.00,,2013-03-17 00:22:00,
2013-03-17 00:32:00,23.0,16.0,-100.00,NNE,20,14.0,16.0,75,0.00,,,0.00,,2013-03-17 00:32:00,
2013-03-17 00:42:00,22.0,16.0,-100.00,NNE,20,16.0,17.0,75,0.00,,,0.00,,2013-03-17 00:42:00,
2013-03-17 00:52:00,22.0,16.0,-100.00,NNE,25,14.0,17.0,76,0.00,,,0.00,,2013-03-17 00:52:00,
2013-03-17 01:02:00,22.0,16.0,-100.00,NNE,20,12.0,16.0,76,0.00,,,0.00,,2013-03-17 01:02:00,
2013-03-17 01:12:00,21.0,16.0,-100.00,NNE,20,13.0,16.0,76,0.00,,,0.00,,2013-03-17 01:12:00,
2013-03-17 01:22:00,22.0,16.0,-100.00,NNE,25,12.0,15.0,77,0.00,,,0.00,,2013-03-17 01:22:00,
2013-03-17 01:32:00,21.0,16.0,-100.00,North,5,11.0,15.0,78,0.00,,,0.00,,2013-03-17 01:32:00,
2013-03-17 01:42:00,21.0,16.0,-100.00,NNE,20,12.0,16.0,78,0.00,,,0.00,,2013-03-17 01:42:00,
2013-03-17 01:52:00,20.0,14.0,-100.00,North,0,10.0,16.0,77,0.00,,,0.00,,2013-03-17 01:52:00,
2013-03-17 02:02:00,20.0,14.0,-100.00,North,5,10.0,12.0,77,0.00,,,0.00,,2013-03-17 02:02:00,
2013-03-17 02:12:00,21.0,14.0,-100.00,NNE,15,12.0,16.0,77,0.00,,,0.00,,2013-03-17 02:12:00,
2013-03-17 02:22:00,20.0,14.0,-100.00,North,10,11.0,14.0,76,0.00,,,0.00,,2013-03-17 02:22:00,
2013-03-17 02:33:00,20.0,14.0,-100.00,NNE,15,11.0,14.0,76,0.00,,,0.00,,2013-03-17 02:33:00,
2013-03-17 02:42:00,19.0,12.0,-100.00,North,0,11.0,13.0,74,0.00,,,0.00,,2013-03-17 02:42:00,
2013-03-17 02:52:00,19.0,12.0,-100.00,NNE,15,11.0,14.0,74,0.00,,,0.00,,2013-03-17 02:52:00,
2013-03-17 03:02:00,20.0,14.0,-100.00,NNE,20,12.0,15.0,76,0.00,,,0.00,,2013-03-17 03:02:00,
2013-03-17 03:12:00,19.0,12.0,-100.00,NE,45,11.0,16.0,76,0.00,,,0.00,,2013-03-17 03:12:00,
2013-03-17 03:22:00,19.0,12.0,-100.00,NNE,30,11.0,14.0,75,0.00,,,0.00,,2013-03-17 03:22:00,
2013-03-17 03:33:00,19.0,12.0,-100.00,NE,45,10.0,12.0,75,0.00,,,0.00,,2013-03-17 03:33:00,
2013-03-17 03:43:00,18.0,12.0,-100.00,ENE,65,9.0,12.0,76,0.00,,,0.00,,2013-03-17 03:43:00,
2013-03-17 03:52:00,18.0,12.0,-100.00,NE,55,10.0,14.0,77,0.00,,,0.00,,2013-03-17 03:52:00,
2013-03-17 04:03:00,18.0,12.0,-100.00,NE,55,9.0,14.0,77,0.00,,,0.00,,2013-03-17 04:03:00,
2013-03-17 04:12:00,18.0,12.0,-100.00,NE,50,12.0,13.0,77,0.00,,,0.00,,2013-03-17 04:12:00,
2013-03-17 04:23:00,17.0,12.0,-100.00,NE,55,9.0,13.0,77,0.00,,,0.00,,2013-03-17 04:23:00,
2013-03-17 04:32:00,17.0,10.0,-100.00,NE,45,9.0,12.0,78,0.00,,,0.00,,2013-03-17 04:32:00,
2013-03-17 04:42:00,17.0,10.0,-100.00,NE,45,6.0,11.0,78,0.00,,,0.00,,2013-03-17 04:42:00,
2013-03-17 04:53:00,17.0,12.0,-100.00,NE,40,9.0,11.0,79,0.00,,,0.00,,2013-03-17 04:53:00,
2013-03-17 05:02:00,17.0,12.0,-100.00,ENE,60,11.0,14.0,80,0.00,,,0.00,,2013-03-17 05:02:00,
2013-03-17 05:12:00,16.0,10.0,-100.00,NE,50,11.0,12.0,81,0.00,,,0.00,,2013-03-17 05:12:00,
2013-03-17 05:22:00,16.0,10.0,-100.00,ENE,65,7.0,11.0,81,0.00,,,0.00,,2013-03-17 05:22:00,
2013-03-17 05:32:00,16.0,10.0,-100.00,ENE,70,9.0,12.0,80,0.00,,,0.00,,2013-03-17 05:32:00,
2013-03-17 05:42:00,16.0,10.0,-100.00,ENE,65,9.0,13.0,80,0.00,,,0.00,,2013-03-17 05:42:00,
2013-03-17 05:52:00,16.0,10.0,-100.00,ENE,60,10.0,13.0,80,0.00,,,0.00,,2013-03-17 05:52:00,
2013-03-17 06:02:00,16.0,10.0,-100.00,ENE,75,9.0,13.0,80,0.00,,,0.00,,2013-03-17 06:02:00,
2013-03-17 06:12:00,16.0,10.0,-100.00,NE,55,9.0,12.0,81,0.00,,,0.00,,2013-03-17 06:12:00,
2013-03-17 06:22:00,16.0,10.0,-100.00,ENE,65,11.0,14.0,81,0.00,,,0.00,,2013-03-17 06:22:00,
2013-03-17 06:32:00,15.0,10.0,-100.00,ENE,70,9.0,14.0,81,0.00,,,0.00,,2013-03-17 06:32:00,
2013-03-17 06:42:00,15.0,10.0,-100.00,East,80,9.0,12.0,81,0.00,,,0.00,,2013-03-17 06:42:00,
2013-03-17 06:52:00,15.0,10.0,-100.00,ENE,65,10.0,15.0,81,0.00,,,0.00,,2013-03-17 06:52:00,
2013-03-17 07:02:00,15.0,10.0,-100.00,ENE,70,11.0,16.0,81,0.00,,,0.00,,2013-03-17 07:02:00,
2013-03-17 07:12:00,15.0,10.0,-100.00,ENE,75,12.0,15.0,81,0.00,,,0.00,,2013-03-17 07:12:00,
2013-03-17 07:22:00,15.0,10.0,-100.00,NE,55,11.0,16.0,82,0.00,,,0.00,,2013-03-17 07:22:00,
2013-03-17 07:32:00,15.0,10.0,-100.00,ENE,65,9.0,14.0,83,0.00,,,0.00,,2013-03-17 07:32:00,
2013-03-17 07:42:00,15.0,10.0,-100.00,NE,55,9.0,14.0,84,0.00,,,0.00,,2013-03-17 07:42:00,
2013-03-17 07:52:00,15.0,10.0,-100.00,East,85,9.0,13.0,84,0.00,,,0.00,,2013-03-17 07:52:00,
2013-03-17 08:02:00,15.0,10.0,-100.00,ENE,70,7.0,12.0,84,0.00,,,0.00,,2013-03-17 08:02:00,
2013-03-17 08:12:00,15.0,10.0,-100.00,ENE,70,8.0,13.0,84,0.00,,,0.00,,2013-03-17 08:12:00,
2013-03-17 08:22:00,15.0,10.0,-100.00,ENE,60,9.0,13.0,84,0.00,,,0.00,,2013-03-17 08:22:00,
2013-03-17 08:32:00,15.0,10.0,-100.00,ENE,70,6.0,11.0,84,0.00,,,0.00,,2013-03-17 08:32:00,
2013-03-17 08:42:00,14.0,10.0,-100.00,ENE,70,11.0,15.0,84,0.00,,,0.00,,2013-03-17 08:42:00,
2013-03-17 08:52:00,14.0,10.0,-100.00,ENE,70,10.0,13.0,83,0.00,,,0.00,,2013-03-17 08:52:00,
2013-03-17 09:02:00,14.0,10.0,-100.00,ENE,65,10.0,14.0,83,0.00,,,0.00,,2013-03-17 09:02:00,
2013-03-17 09:12:00,14.0,10.0,-100.00,ENE,60,12.0,14.0,83,0.00,,,0.00,,2013-03-17 09:12:00,
2013-03-17 09:22:00,14.0,10.0,-100.00,East,80,14.0,17.0,83,0.00,,,0.00,,2013-03-17 09:22:00,
2013-03-17 09:32:00,14.0,10.0,-100.00,ENE,75,14.0,18.0,83,0.00,,,0.00,,2013-03-17 09:32:00,
2013-03-17 09:42:00,14.0,10.0,-100.00,ENE,70,13.0,19.0,83,0.00,,,0.00,,2013-03-17 09:42:00,
2013-03-17 09:53:00,14.0,10.0,-100.00,ENE,65,12.0,21.0,83,0.00,,,0.00,,2013-03-17 09:53:00,
2013-03-17 10:03:00,14.0,10.0,-100.00,East,80,11.0,17.0,83,0.00,,,0.00,,2013-03-17 10:03:00,
2013-03-17 10:13:00,14.0,10.0,-100.00,ENE,75,10.0,16.0,83,0.00,,,0.00,,2013-03-17 10:13:00,
2013-03-17 10:23:00,13.0,9.0,-100.00,ENE,75,12.0,17.0,83,0.00,,,0.00,,2013-03-17 10:23:00,
2013-03-17 10:33:00,14.0,10.0,-100.00,East,90,11.0,18.0,83,0.00,,,0.00,,2013-03-17 10:33:00,
2013-03-17 10:42:00,13.0,9.0,-100.00,East,95,16.0,22.0,84,0.00,,,0.00,,2013-03-17 10:42:00,
2013-03-17 10:52:00,13.0,9.0,-100.00,East,80,16.0,22.0,84,0.00,,,0.00,,2013-03-17 10:52:00,
2013-03-17 11:02:00,13.0,9.0,-100.00,ENE,75,14.0,21.0,85,0.00,,,0.00,,2013-03-17 11:02:00,
2013-03-17 11:12:00,13.0,9.0,-100.00,East,80,16.0,20.0,85,0.00,,,0.00,,2013-03-17 11:12:00,
2013-03-17 11:22:00,13.0,9.0,-100.00,East,90,16.0,19.0,85,0.00,,,0.00,,2013-03-17 11:22:00,
2013-03-17 11:32:00,13.0,9.0,-100.00,East,80,11.0,18.0,85,0.00,,,0.00,,2013-03-17 11:32:00,
2013-03-17 11:42:00,12.0,9.0,-100.00,East,80,16.0,20.0,85,0.00,,,0.00,,2013-03-17 11:42:00,
2013-03-17 11:52:00,12.0,9.0,-100.00,ENE,70,14.0,21.0,84,0.00,,,0.00,,2013-03-17 11:52:00,
2013-03-17 12:02:00,13.0,9.0,-100.00,East,90,13.0,16.0,84,0.00,,,0.00,,2013-03-17 12:02:00,
2013-03-17 12:12:00,13.0,9.0,-100.00,East,80,13.0,17.0,84,0.00,,,0.00,,2013-03-17 12:12:00,
2013-03-17 12:22:00,13.0,9.0,-100.00,East,85,11.0,17.0,82,0.00,,,0.00,,2013-03-17 12:22:00,
2013-03-17 12:32:00,13.0,9.0,-100.00,East,90,11.0,16.0,81,0.00,,,0.00,,2013-03-17 12:32:00,
2013-03-17 12:42:00,13.0,9.0,-100.00,East,95,14.0,17.0,81,0.00,,,0.00,,2013-03-17 12:42:00,
2013-03-17 12:52:00,13.0,9.0,-100.00,ESE,105,11.0,16.0,81,0.00,,,0.00,,2013-03-17 12:52:00,
2013-03-17 13:02:00,13.0,9.0,-100.00,East,100,13.0,16.0,81,0.00,,,0.00,,2013-03-17 13:02:00,
2013-03-17 13:12:00,13.0,9.0,-100.00,ESE,105,11.0,16.0,81,0.00,,,0.00,,2013-03-17 13:12:00,
2013-03-17 13:22:00,14.0,9.0,-100.00,ESE,110,11.0,17.0,81,0.00,,,0.00,,2013-03-17 13:22:00,
2013-03-17 13:32:00,14.0,9.0,-100.00,ESE,115,12.0,17.0,81,0.00,,,0.00,,2013-03-17 13:32:00,
2013-03-17 13:42:00,14.0,9.0,-100.00,East,100,13.0,17.0,81,0.00,,,0.00,,2013-03-17 13:42:00,
2013-03-17 13:52:00,15.0,10.0,-100.00,ESE,115,12.0,17.0,81,0.00,,,0.00,,2013-03-17 13:52:00,
2013-03-17 14:02:00,15.0,10.0,-100.00,ESE,120,13.0,17.0,81,0.00,,,0.00,,2013-03-17 14:02:00,
2013-03-17 14:12:00,15.0,10.0,-100.00,ESE,115,16.0,21.0,81,0.00,,,0.00,,2013-03-17 14:12:00,
2013-03-17 14:22:00,15.0,10.0,-100.00,SE,125,15.0,19.0,81,0.00,,,0.00,,2013-03-17 14:22:00,
2013-03-17 14:32:00,16.0,10.0,-100.00,SE,125,16.0,21.0,81,0.00,,,0.00,,2013-03-17 14:32:00,
2013-03-17 14:42:00,16.0,10.0,-100.00,SE,130,17.0,22.0,81,0.00,,,0.00,,2013-03-17 14:42:00,
2013-03-17 14:52:00,16.0,12.0,-100.00,SE,140,17.0,21.0,81,0.00,,,0.00,,2013-03-17 14:52:00,
2013-03-17 15:02:00,17.0,12.0,-100.00,SE,140,17.0,24.0,80,0.00,,,0.00,,2013-03-17 15:02:00,
2013-03-17 15:12:00,17.0,12.0,-100.00,SE,145,20.0,24.0,79,0.00,,,0.00,,2013-03-17 15:12:00,
2013-03-17 15:23:00,17.0,12.0,-100.00,SSE,155,18.0,21.0,79,0.00,,,0.00,,2013-03-17 15:23:00,
2013-03-17 15:33:00,17.0,12.0,-100.00,SE,145,18.0,24.0,80,0.00,,,0.00,,2013-03-17 15:33:00,
2013-03-17 15:42:00,18.0,12.0,-100.00,SE,140,18.0,24.0,80,0.00,,,0.00,,2013-03-17 15:42:00,
2013-03-17 15:52:00,18.0,12.0,-100.00,SE,145,19.0,23.0,80,0.00,,,0.00,,2013-03-17 15:52:00,
2013-03-17 16:03:00,19.0,14.0,-100.00,SSE,150,18.0,24.0,80,0.00,,,0.00,,2013-03-17 16:03:00,
2013-03-17 16:12:00,18.0,14.0,-100.00,SE,140,17.0,24.0,80,0.00,,,0.00,,2013-03-17 16:12:00,
2013-03-17 16:22:00,19.0,14.0,-100.00,SSE,160,21.0,24.0,78,0.00,,,0.00,,2013-03-17 16:22:00,
2013-03-17 16:33:00,20.0,14.0,-100.00,SSE,160,19.0,26.0,77,0.00,,,0.00,,2013-03-17 16:33:00,
2013-03-17 16:42:00,20.0,14.0,-100.00,South,175,22.0,26.0,76,0.00,,,0.00,,2013-03-17 16:42:00,
2013-03-17 16:52:00,21.0,14.0,-100.00,SSE,165,19.0,26.0,76,0.00,,,0.00,,2013-03-17 16:52:00,
2013-03-17 17:02:00,21.0,14.0,-100.00,SE,145,22.0,27.0,75,0.00,,,0.00,,2013-03-17 17:02:00,
2013-03-17 17:12:00,21.0,16.0,-100.00,SE,145,20.0,28.0,75,0.00,,,0.00,,2013-03-17 17:12:00,
2013-03-17 17:22:00,22.0,16.0,-100.00,SE,140,19.0,26.0,75,0.00,,,0.00,,2013-03-17 17:22:00,
2013-03-17 17:33:00,23.0,16.0,-100.00,SE,145,21.0,28.0,74,0.00,,,0.00,,2013-03-17 17:33:00,
2013-03-17 17:42:00,24.0,16.0,-100.00,SSE,165,20.0,26.0,72,0.00,,,0.00,,2013-03-17 17:42:00,
2013-03-17 17:52:00,25.0,18.0,-100.00,SSE,165,17.0,27.0,72,0.00,,,0.00,,2013-03-17 17:52:00,
2013-03-17 18:02:00,25.0,18.0,-100.00,South,170,22.0,26.0,71,0.00,,,0.00,,2013-03-17 18:02:00,
2013-03-17 18:12:00,25.0,18.0,-100.00,South,170,19.0,26.0,71,0.00,,,0.00,,2013-03-17 18:12:00,
2013-03-17 18:22:00,27.0,19.0,-100.00,SSE,165,20.0,27.0,71,0.00,,,0.00,,2013-03-17 18:22:00,
2013-03-17 18:32:00,26.0,18.0,-100.00,SSE,165,19.0,27.0,70,0.00,,,0.00,,2013-03-17 18:32:00,
2013-03-17 18:42:00,27.0,19.0,-100.00,SSE,165,19.0,25.0,71,0.00,,,0.00,,2013-03-17 18:42:00,
2013-03-17 18:52:00,28.0,19.0,-100.00,South,180,21.0,26.0,71,0.00,,,0.00,,2013-03-17 18:52:00,
2013-03-17 19:02:00,27.0,19.0,-100.00,South,170,19.0,24.0,72,0.00,,,0.00,,2013-03-17 19:02:00,
2013-03-17 19:12:00,27.0,19.0,-100.00,South,175,18.0,24.0,73,0.00,,,0.00,,2013-03-17 19:12:00,
2013-03-17 19:22:00,27.0,21.0,-100.00,SSE,165,21.0,24.0,74,0.00,,,0.00,,2013-03-17 19:22:00,
2013-03-17 19:33:00,28.0,21.0,-100.00,South,170,16.0,26.0,75,0.00,,,0.00,,2013-03-17 19:33:00,
2013-03-17 19:42:00,28.0,21.0,-100.00,South,170,19.0,24.0,75,0.00,,,0.00,,2013-03-17 19:42:00,
2013-03-17 19:53:00,28.0,21.0,-100.00,SSE,150,19.0,25.0,75,0.00,,,0.00,,2013-03-17 19:53:00,
2013-03-17 20:02:00,29.0,21.0,-100.00,SSE,165,20.0,27.0,75,0.00,,,0.00,,2013-03-17 20:02:00,
2013-03-17 20:12:00,29.0,21.0,-100.00,SSE,160,22.0,27.0,75,0.00,,,0.00,,2013-03-17 20:12:00,
2013-03-17 20:22:00,30.0,23.0,-100.00,SSE,155,22.0,30.0,76,0.00,,,0.00,,2013-03-17 20:22:00,
2013-03-17 20:32:00,30.0,23.0,-100.00,South,175,22.0,28.0,76,0.00,,,0.00,,2013-03-17 20:32:00,
2013-03-17 20:42:00,31.0,25.0,-100.00,SSE,165,17.0,30.0,77,0.00,,,0.00,,2013-03-17 20:42:00,
2013-03-17 20:52:00,30.0,23.0,-100.00,South,180,21.0,29.0,77,0.00,,,0.00,,2013-03-17 20:52:00,
2013-03-17 21:02:00,30.0,23.0,-100.00,South,170,24.0,29.0,77,0.00,,,0.00,,2013-03-17 21:02:00,
2013-03-17 21:12:00,30.0,23.0,-100.00,South,170,24.0,30.0,77,0.00,,,0.00,,2013-03-17 21:12:00,
2013-03-17 21:22:00,30.0,23.0,-100.00,SSE,160,21.0,28.0,78,0.00,,,0.00,,2013-03-17 21:22:00,
2013-03-17 21:33:00,30.0,25.0,-100.00,SE,145,24.0,29.0,79,0.00,,,0.00,,2013-03-17 21:33:00,
2013-03-17 21:42:00,30.0,25.0,-100.00,South,170,22.0,31.0,80,0.00,,,0.00,,2013-03-17 21:42:00,
2013-03-17 21:52:00,30.0,25.0,-100.00,South,170,22.0,29.0,80,0.00,,,0.00,,2013-03-17 21:52:00,
2013-03-17 22:03:00,30.0,25.0,-100.00,SSE,165,21.0,28.0,81,0.00,,,0.00,,2013-03-17 22:03:00,
2013-03-17 22:12:00,30.0,25.0,-100.00,SSE,160,20.0,26.0,81,0.00,,,0.00,,2013-03-17 22:12:00,
2013-03-17 22:23:00,31.0,27.0,-100.00,SSE,160,24.0,32.0,81,0.00,,,0.00,,2013-03-17 22:23:00,
2013-03-17 22:33:00,31.0,27.0,-100.00,SSE,155,27.0,33.0,81,0.00,,,0.00,,2013-03-17 22:33:00,
2013-03-17 22:42:00,30.0,27.0,-100.00,South,170,22.0,31.0,83,0.00,,,0.00,,2013-03-17 22:42:00,
2013-03-17 22:52:00,30.0,27.0,-100.00,SSE,155,24.0,28.0,84,0.00,,,0.00,,2013-03-17 22:52:00,
2013-03-17 23:02:00,30.0,27.0,-100.00,SSE,160,19.0,26.0,84,0.00,,,0.00,,2013-03-17 23:02:00,
2013-03-17 23:12:00,31.0,27.0,-100.00,South,170,20.0,24.0,84,0.00,,,0.00,,2013-03-17 23:12:00,
2013-03-17 23:22:00,31.0,27.0,-100.00,SSE,160,20.0,27.0,84,0.00,,,0.00,,2013-03-17 23:22:00,
2013-03-17 23:32:00,31.0,27.0,-100.00,SSE,165,18.0,24.0,84,0.00,,,0.00,,2013-03-17 23:32:00,
2013-03-17 23:42:00,31.0,27.0,-100.00,SSE,150,21.0,24.0,86,0.00,,,0.00,,2013-03-17 23:42:00,
2013-03-17 23:52:00,31.0,27.0,-100.00,SSE,150,21.0,27.0,86,0.00,,,0.00,,2013-03-17 23:52:00,